sensor_id;sensor_type;location;lat;lon;timestamp;P1;durP1;ratioP1;P2;durP2;ratioP2
18136;SDS011;9194;42.632;23.298;2023-12-20T00:03:11;0.90;;;0.90;;
18136;SDS011;9194;42.632;23.298;2023-12-20T00:08:12;1.10;;;1.10;;
18136;SDS011;9194;42.632;23.298;2023-12-20T00:13:13;0.97;;;0.97;;
18136;SDS011;9194;42.632;23.298;2023-12-20T00:18:14;0.80;;;0.80;;
18136;SDS011;9194;42.632;23.298;2023-12-20T00:23:15;0.97;;;0.97;;
18136;SDS011;9194;42.632;23.298;2023-12-20T00:28:17;1.00;;;1.00;;
18136;SDS011;9194;42.632;23.298;2023-12-20T00:33:18;0.90;;;0.90;;
18136;SDS011;9194;42.632;23.298;2023-12-20T00:38:20;1.33;;;1.33;;
18136;SDS011;9194;42.632;23.298;2023-12-20T00:43:21;0.83;;;0.83;;
18136;SDS011;9194;42.632;23.298;2023-12-20T00:48:22;1.00;;;1.00;;
18136;SDS011;9194;42.632;23.298;2023-12-20T00:53:23;0.90;;;0.90;;
18136;SDS011;9194;42.632;23.298;2023-12-20T00:58:25;0.80;;;0.80;;
18136;SDS011;9194;42.632;23.298;2023-12-20T01:03:27;0.70;;;0.70;;
18136;SDS011;9194;42.632;23.298;2023-12-20T01:08:28;0.90;;;0.90;;
18136;SDS011;9194;42.632;23.298;2023-12-20T01:13:29;0.73;;;0.73;;
18136;SDS011;9194;42.632;23.298;2023-12-20T01:18:31;0.70;;;0.70;;
18136;SDS011;9194;42.632;23.298;2023-12-20T01:23:32;1.23;;;1.23;;
18136;SDS011;9194;42.632;23.298;2023-12-20T01:28:33;0.90;;;0.90;;
18136;SDS011;9194;42.632;23.298;2023-12-20T01:33:34;0.80;;;0.80;;
18136;SDS011;9194;42.632;23.298;2023-12-20T01:38:36;0.90;;;0.90;;
18136;SDS011;9194;42.632;23.298;2023-12-20T01:43:37;0.80;;;0.80;;
18136;SDS011;9194;42.632;23.298;2023-12-20T01:48:38;0.70;;;0.70;;
18136;SDS011;9194;42.632;23.298;2023-12-20T01:53:40;3.80;;;1.73;;
18136;SDS011;9194;42.632;23.298;2023-12-20T01:58:44;0.87;;;0.87;;
18136;SDS011;9194;42.632;23.298;2023-12-20T02:03:48;1.07;;;1.07;;
18136;SDS011;9194;42.632;23.298;2023-12-20T02:08:49;0.90;;;0.90;;
18136;SDS011;9194;42.632;23.298;2023-12-20T02:13:51;9.63;;;1.40;;
18136;SDS011;9194;42.632;23.298;2023-12-20T02:18:53;1.00;;;1.00;;
18136;SDS011;9194;42.632;23.298;2023-12-20T02:23:55;0.70;;;0.70;;
18136;SDS011;9194;42.632;23.298;2023-12-20T02:28:56;0.70;;;0.70;;
18136;SDS011;9194;42.632;23.298;2023-12-20T02:33:57;0.83;;;0.83;;
18136;SDS011;9194;42.632;23.298;2023-12-20T02:38:58;0.80;;;0.80;;
18136;SDS011;9194;42.632;23.298;2023-12-20T02:44:01;0.80;;;0.80;;
18136;SDS011;9194;42.632;23.298;2023-12-20T02:49:03;0.93;;;0.93;;
18136;SDS011;9194;42.632;23.298;2023-12-20T02:54:04;0.80;;;0.80;;
18136;SDS011;9194;42.632;23.298;2023-12-20T02:59:06;0.80;;;0.80;;
18136;SDS011;9194;42.632;23.298;2023-12-20T03:04:09;0.80;;;0.80;;
18136;SDS011;9194;42.632;23.298;2023-12-20T03:09:10;1.00;;;1.00;;
18136;SDS011;9194;42.632;23.298;2023-12-20T03:14:11;0.87;;;0.87;;
18136;SDS011;9194;42.632;23.298;2023-12-20T03:19:13;0.90;;;0.90;;
18136;SDS011;9194;42.632;23.298;2023-12-20T03:24:14;1.40;;;1.40;;
18136;SDS011;9194;42.632;23.298;2023-12-20T03:29:15;0.93;;;0.93;;
18136;SDS011;9194;42.632;23.298;2023-12-20T03:34:16;0.90;;;0.90;;
18136;SDS011;9194;42.632;23.298;2023-12-20T03:39:17;1.03;;;1.03;;
18136;SDS011;9194;42.632;23.298;2023-12-20T03:44:40;0.93;;;0.93;;
18136;SDS011;9194;42.632;23.298;2023-12-20T03:49:42;1.10;;;1.10;;
18136;SDS011;9194;42.632;23.298;2023-12-20T03:54:43;1.03;;;1.03;;
18136;SDS011;9194;42.632;23.298;2023-12-20T03:59:44;1.37;;;1.37;;
18136;SDS011;9194;42.632;23.298;2023-12-20T04:04:46;1.60;;;1.50;;
18136;SDS011;9194;42.632;23.298;2023-12-20T04:09:47;0.70;;;0.70;;
18136;SDS011;9194;42.632;23.298;2023-12-20T04:14:49;0.83;;;0.83;;
18136;SDS011;9194;42.632;23.298;2023-12-20T04:19:50;1.20;;;1.20;;
18136;SDS011;9194;42.632;23.298;2023-12-20T04:24:52;1.27;;;1.27;;
18136;SDS011;9194;42.632;23.298;2023-12-20T04:29:53;1.40;;;1.40;;
18136;SDS011;9194;42.632;23.298;2023-12-20T04:34:54;1.20;;;1.20;;
18136;SDS011;9194;42.632;23.298;2023-12-20T04:39:55;0.80;;;0.80;;
18136;SDS011;9194;42.632;23.298;2023-12-20T04:44:57;0.90;;;0.90;;
18136;SDS011;9194;42.632;23.298;2023-12-20T04:49:58;1.07;;;1.07;;
18136;SDS011;9194;42.632;23.298;2023-12-20T04:54:59;0.90;;;0.90;;
18136;SDS011;9194;42.632;23.298;2023-12-20T05:00:01;1.17;;;1.17;;
18136;SDS011;9194;42.632;23.298;2023-12-20T05:05:02;1.07;;;1.07;;
18136;SDS011;9194;42.632;23.298;2023-12-20T05:10:04;0.83;;;0.83;;
18136;SDS011;9194;42.632;23.298;2023-12-20T05:15:06;0.77;;;0.77;;
18136;SDS011;9194;42.632;23.298;2023-12-20T05:20:07;0.80;;;0.80;;
18136;SDS011;9194;42.632;23.298;2023-12-20T05:25:09;0.80;;;0.80;;
18136;SDS011;9194;42.632;23.298;2023-12-20T05:30:10;0.77;;;0.77;;
18136;SDS011;9194;42.632;23.298;2023-12-20T05:35:12;0.77;;;0.77;;
18136;SDS011;9194;42.632;23.298;2023-12-20T05:40:13;0.80;;;0.80;;
18136;SDS011;9194;42.632;23.298;2023-12-20T05:45:14;0.83;;;0.83;;
18136;SDS011;9194;42.632;23.298;2023-12-20T05:50:16;0.90;;;0.90;;
18136;SDS011;9194;42.632;23.298;2023-12-20T05:55:17;1.00;;;1.00;;
18136;SDS011;9194;42.632;23.298;2023-12-20T06:00:18;0.90;;;0.90;;
18136;SDS011;9194;42.632;23.298;2023-12-20T06:05:19;1.10;;;1.10;;
18136;SDS011;9194;42.632;23.298;2023-12-20T06:10:21;0.97;;;0.97;;
18136;SDS011;9194;42.632;23.298;2023-12-20T06:15:22;1.07;;;1.07;;
18136;SDS011;9194;42.632;23.298;2023-12-20T06:20:24;1.00;;;1.00;;
18136;SDS011;9194;42.632;23.298;2023-12-20T06:25:25;1.33;;;1.20;;
18136;SDS011;9194;42.632;23.298;2023-12-20T06:30:26;6.17;;;1.43;;
18136;SDS011;9194;42.632;23.298;2023-12-20T06:35:28;1.67;;;1.57;;
18136;SDS011;9194;42.632;23.298;2023-12-20T06:40:29;1.60;;;1.57;;
18136;SDS011;9194;42.632;23.298;2023-12-20T06:45:30;1.20;;;1.20;;
18136;SDS011;9194;42.632;23.298;2023-12-20T06:50:32;1.60;;;1.50;;
18136;SDS011;9194;42.632;23.298;2023-12-20T06:55:34;1.70;;;1.60;;
18136;SDS011;9194;42.632;23.298;2023-12-20T07:00:37;2.47;;;2.20;;
18136;SDS011;9194;42.632;23.298;2023-12-20T07:05:39;2.50;;;2.40;;
18136;SDS011;9194;42.632;23.298;2023-12-20T07:10:41;1.67;;;1.57;;
18136;SDS011;9194;42.632;23.298;2023-12-20T07:15:42;1.77;;;1.77;;
18136;SDS011;9194;42.632;23.298;2023-12-20T07:20:44;3.30;;;2.87;;
18136;SDS011;9194;42.632;23.298;2023-12-20T07:25:45;3.70;;;2.97;;
18136;SDS011;9194;42.632;23.298;2023-12-20T07:30:46;3.70;;;3.37;;
18136;SDS011;9194;42.632;23.298;2023-12-20T07:35:47;1.60;;;1.60;;
18136;SDS011;9194;42.632;23.298;2023-12-20T07:40:48;6.20;;;3.80;;
18136;SDS011;9194;42.632;23.298;2023-12-20T07:45:50;2.60;;;2.50;;
18136;SDS011;9194;42.632;23.298;2023-12-20T07:50:51;2.63;;;2.43;;
18136;SDS011;9194;42.632;23.298;2023-12-20T07:55:53;2.80;;;2.60;;
18136;SDS011;9194;42.632;23.298;2023-12-20T08:00:55;3.13;;;2.93;;
18136;SDS011;9194;42.632;23.298;2023-12-20T08:05:56;4.17;;;3.53;;
18136;SDS011;9194;42.632;23.298;2023-12-20T08:11:00;9.83;;;3.53;;
18136;SDS011;9194;42.632;23.298;2023-12-20T08:16:01;13.97;;;4.00;;
18136;SDS011;9194;42.632;23.298;2023-12-20T08:21:03;3.93;;;3.63;;
18136;SDS011;9194;42.632;23.298;2023-12-20T08:26:05;13.67;;;4.37;;
18136;SDS011;9194;42.632;23.298;2023-12-20T08:31:13;9.50;;;6.93;;
18136;SDS011;9194;42.632;23.298;2023-12-20T08:36:16;3.27;;;3.03;;
18136;SDS011;9194;42.632;23.298;2023-12-20T08:41:18;8.13;;;5.83;;
18136;SDS011;9194;42.632;23.298;2023-12-20T08:46:21;42.97;;;9.77;;
18136;SDS011;9194;42.632;23.298;2023-12-20T08:51:22;13.17;;;10.00;;
18136;SDS011;9194;42.632;23.298;2023-12-20T08:56:26;16.07;;;10.40;;
18136;SDS011;9194;42.632;23.298;2023-12-20T09:01:27;16.70;;;8.67;;
18136;SDS011;9194;42.632;23.298;2023-12-20T09:06:28;19.40;;;9.50;;
18136;SDS011;9194;42.632;23.298;2023-12-20T09:11:29;18.20;;;9.13;;
18136;SDS011;9194;42.632;23.298;2023-12-20T09:16:31;10.17;;;8.90;;
18136;SDS011;9194;42.632;23.298;2023-12-20T09:21:32;37.63;;;15.33;;
18136;SDS011;9194;42.632;23.298;2023-12-20T09:26:33;28.10;;;14.80;;
18136;SDS011;9194;42.632;23.298;2023-12-20T09:31:36;20.37;;;9.27;;
18136;SDS011;9194;42.632;23.298;2023-12-20T09:36:37;26.97;;;11.40;;
18136;SDS011;9194;42.632;23.298;2023-12-20T09:41:44;13.07;;;10.43;;
18136;SDS011;9194;42.632;23.298;2023-12-20T09:46:49;27.00;;;13.70;;
18136;SDS011;9194;42.632;23.298;2023-12-20T09:51:52;25.73;;;14.57;;
18136;SDS011;9194;42.632;23.298;2023-12-20T09:56:54;22.30;;;14.97;;
18136;SDS011;9194;42.632;23.298;2023-12-20T10:01:55;32.63;;;17.43;;
18136;SDS011;9194;42.632;23.298;2023-12-20T10:07:01;23.47;;;13.97;;
18136;SDS011;9194;42.632;23.298;2023-12-20T10:12:04;30.97;;;16.13;;
18136;SDS011;9194;42.632;23.298;2023-12-20T10:17:07;15.97;;;12.93;;
18136;SDS011;9194;42.632;23.298;2023-12-20T10:22:08;23.57;;;12.53;;
18136;SDS011;9194;42.632;23.298;2023-12-20T10:27:11;17.20;;;12.60;;
18136;SDS011;9194;42.632;23.298;2023-12-20T10:32:25;35.90;;;13.43;;
18136;SDS011;9194;42.632;23.298;2023-12-20T10:37:27;17.90;;;9.47;;
18136;SDS011;9194;42.632;23.298;2023-12-20T10:42:29;21.50;;;11.67;;
18136;SDS011;9194;42.632;23.298;2023-12-20T10:47:31;40.23;;;12.83;;
18136;SDS011;9194;42.632;23.298;2023-12-20T10:52:33;21.77;;;11.13;;
18136;SDS011;9194;42.632;23.298;2023-12-20T11:17:10;22.27;;;11.57;;
18136;SDS011;9194;42.632;23.298;2023-12-20T11:22:14;19.50;;;11.00;;
18136;SDS011;9194;42.632;23.298;2023-12-20T11:27:15;16.33;;;11.60;;
18136;SDS011;9194;42.632;23.298;2023-12-20T11:37:29;32.23;;;12.40;;
18136;SDS011;9194;42.632;23.298;2023-12-20T11:42:44;19.53;;;9.00;;
18136;SDS011;9194;42.632;23.298;2023-12-20T11:47:47;24.37;;;10.70;;
18136;SDS011;9194;42.632;23.298;2023-12-20T11:52:55;27.27;;;9.93;;
18136;SDS011;9194;42.632;23.298;2023-12-20T11:57:56;23.83;;;11.70;;
18136;SDS011;9194;42.632;23.298;2023-12-20T12:02:58;16.97;;;10.90;;
18136;SDS011;9194;42.632;23.298;2023-12-20T12:08:00;24.67;;;11.20;;
18136;SDS011;9194;42.632;23.298;2023-12-20T12:13:01;11.23;;;8.50;;
18136;SDS011;9194;42.632;23.298;2023-12-20T12:18:03;20.73;;;9.67;;
18136;SDS011;9194;42.632;23.298;2023-12-20T12:23:06;14.40;;;8.37;;
18136;SDS011;9194;42.632;23.298;2023-12-20T12:28:07;14.47;;;8.17;;
18136;SDS011;9194;42.632;23.298;2023-12-20T12:33:08;18.87;;;6.63;;
18136;SDS011;9194;42.632;23.298;2023-12-20T12:38:10;12.33;;;6.57;;
18136;SDS011;9194;42.632;23.298;2023-12-20T12:43:12;8.27;;;5.67;;
18136;SDS011;9194;42.632;23.298;2023-12-20T12:48:13;7.50;;;4.60;;
18136;SDS011;9194;42.632;23.298;2023-12-20T12:53:15;6.03;;;4.83;;
18136;SDS011;9194;42.632;23.298;2023-12-20T12:58:16;6.67;;;4.80;;
18136;SDS011;9194;42.632;23.298;2023-12-20T13:03:18;5.23;;;4.50;;
18136;SDS011;9194;42.632;23.298;2023-12-20T13:08:19;5.10;;;3.63;;
18136;SDS011;9194;42.632;23.298;2023-12-20T13:13:20;7.40;;;5.53;;
18136;SDS011;9194;42.632;23.298;2023-12-20T13:18:22;8.70;;;3.83;;
18136;SDS011;9194;42.632;23.298;2023-12-20T13:34:30;17.87;;;3.97;;
18136;SDS011;9194;42.632;23.298;2023-12-20T13:39:31;3.97;;;2.37;;
18136;SDS011;9194;42.632;23.298;2023-12-20T13:44:33;2.10;;;1.90;;
18136;SDS011;9194;42.632;23.298;2023-12-20T13:49:34;1.17;;;1.17;;
18136;SDS011;9194;42.632;23.298;2023-12-20T13:54:36;1.23;;;1.23;;
18136;SDS011;9194;42.632;23.298;2023-12-20T13:59:38;2.23;;;1.47;;
18136;SDS011;9194;42.632;23.298;2023-12-20T14:04:40;0.80;;;0.80;;
18136;SDS011;9194;42.632;23.298;2023-12-20T14:09:41;1.17;;;1.17;;
18136;SDS011;9194;42.632;23.298;2023-12-20T14:23:14;0.70;;;0.70;;
18136;SDS011;9194;42.632;23.298;2023-12-20T14:28:16;0.90;;;0.90;;
18136;SDS011;9194;42.632;23.298;2023-12-20T14:33:17;2.63;;;0.97;;
18136;SDS011;9194;42.632;23.298;2023-12-20T14:38:20;1.10;;;1.03;;
18136;SDS011;9194;42.632;23.298;2023-12-20T14:43:22;0.50;;;0.50;;
18136;SDS011;9194;42.632;23.298;2023-12-20T14:48:23;1.20;;;1.20;;
18136;SDS011;9194;42.632;23.298;2023-12-20T14:53:25;0.90;;;0.90;;
18136;SDS011;9194;42.632;23.298;2023-12-20T14:58:27;0.90;;;0.90;;
18136;SDS011;9194;42.632;23.298;2023-12-20T15:03:30;0.93;;;0.93;;
18136;SDS011;9194;42.632;23.298;2023-12-20T15:08:31;0.87;;;0.87;;
18136;SDS011;9194;42.632;23.298;2023-12-20T15:13:32;1.47;;;1.37;;
18136;SDS011;9194;42.632;23.298;2023-12-20T15:18:34;1.53;;;1.43;;
18136;SDS011;9194;42.632;23.298;2023-12-20T15:23:35;0.90;;;0.90;;
18136;SDS011;9194;42.632;23.298;2023-12-20T15:28:36;1.50;;;1.43;;
18136;SDS011;9194;42.632;23.298;2023-12-20T15:33:37;1.87;;;1.83;;
18136;SDS011;9194;42.632;23.298;2023-12-20T15:38:40;1.00;;;1.00;;
18136;SDS011;9194;42.632;23.298;2023-12-20T15:43:41;3.23;;;1.17;;
18136;SDS011;9194;42.632;23.298;2023-12-20T15:48:42;1.07;;;1.07;;
18136;SDS011;9194;42.632;23.298;2023-12-20T15:53:43;1.77;;;1.67;;
18136;SDS011;9194;42.632;23.298;2023-12-20T15:58:45;0.80;;;0.80;;
18136;SDS011;9194;42.632;23.298;2023-12-20T16:03:48;0.70;;;0.70;;
18136;SDS011;9194;42.632;23.298;2023-12-20T16:08:49;2.73;;;1.27;;
18136;SDS011;9194;42.632;23.298;2023-12-20T16:13:51;1.10;;;1.10;;
18136;SDS011;9194;42.632;23.298;2023-12-20T16:18:52;0.90;;;0.90;;
18136;SDS011;9194;42.632;23.298;2023-12-20T16:23:53;1.37;;;1.37;;
18136;SDS011;9194;42.632;23.298;2023-12-20T16:28:54;1.30;;;1.30;;
18136;SDS011;9194;42.632;23.298;2023-12-20T16:33:56;1.63;;;1.63;;
18136;SDS011;9194;42.632;23.298;2023-12-20T16:38:57;1.87;;;1.77;;
18136;SDS011;9194;42.632;23.298;2023-12-20T16:43:58;1.37;;;1.37;;
18136;SDS011;9194;42.632;23.298;2023-12-20T16:48:59;1.17;;;1.17;;
18136;SDS011;9194;42.632;23.298;2023-12-20T16:54:00;0.90;;;0.90;;
18136;SDS011;9194;42.632;23.298;2023-12-20T16:59:02;1.53;;;1.40;;
18136;SDS011;9194;42.632;23.298;2023-12-20T17:04:03;1.80;;;1.70;;
18136;SDS011;9194;42.632;23.298;2023-12-20T17:09:04;1.33;;;1.33;;
18136;SDS011;9194;42.632;23.298;2023-12-20T17:14:06;1.67;;;1.57;;
18136;SDS011;9194;42.632;23.298;2023-12-20T17:19:09;2.13;;;1.37;;
18136;SDS011;9194;42.632;23.298;2023-12-20T17:24:10;2.33;;;1.43;;
18136;SDS011;9194;42.632;23.298;2023-12-20T17:29:12;1.20;;;1.20;;
18136;SDS011;9194;42.632;23.298;2023-12-20T17:34:13;1.40;;;1.00;;
18136;SDS011;9194;42.632;23.298;2023-12-20T17:39:14;1.67;;;1.57;;
18136;SDS011;9194;42.632;23.298;2023-12-20T17:44:15;1.00;;;1.00;;
18136;SDS011;9194;42.632;23.298;2023-12-20T17:49:17;0.80;;;0.80;;
18136;SDS011;9194;42.632;23.298;2023-12-20T17:54:21;1.50;;;1.20;;
18136;SDS011;9194;42.632;23.298;2023-12-20T17:59:23;0.77;;;0.77;;
18136;SDS011;9194;42.632;23.298;2023-12-20T18:04:24;0.83;;;0.83;;
18136;SDS011;9194;42.632;23.298;2023-12-20T18:09:26;19.53;;;7.23;;
18136;SDS011;9194;42.632;23.298;2023-12-20T18:14:27;17.90;;;9.00;;
18136;SDS011;9194;42.632;23.298;2023-12-20T18:19:30;5.60;;;5.20;;
18136;SDS011;9194;42.632;23.298;2023-12-20T18:24:31;5.07;;;4.67;;
18136;SDS011;9194;42.632;23.298;2023-12-20T18:29:33;7.00;;;4.03;;
18136;SDS011;9194;42.632;23.298;2023-12-20T18:34:34;1.67;;;1.67;;
18136;SDS011;9194;42.632;23.298;2023-12-20T18:39:36;1.50;;;1.30;;
18136;SDS011;9194;42.632;23.298;2023-12-20T18:44:41;1.20;;;1.17;;
18136;SDS011;9194;42.632;23.298;2023-12-20T18:49:42;2.77;;;1.40;;
18136;SDS011;9194;42.632;23.298;2023-12-20T18:54:43;1.10;;;1.10;;
18136;SDS011;9194;42.632;23.298;2023-12-20T18:59:44;1.50;;;1.50;;
18136;SDS011;9194;42.632;23.298;2023-12-20T19:04:45;1.03;;;1.03;;
18136;SDS011;9194;42.632;23.298;2023-12-20T19:09:47;1.53;;;1.43;;
18136;SDS011;9194;42.632;23.298;2023-12-20T19:14:48;1.13;;;1.13;;
18136;SDS011;9194;42.632;23.298;2023-12-20T19:19:49;0.90;;;0.90;;
18136;SDS011;9194;42.632;23.298;2023-12-20T19:24:50;1.20;;;1.20;;
18136;SDS011;9194;42.632;23.298;2023-12-20T19:29:51;1.93;;;1.83;;
18136;SDS011;9194;42.632;23.298;2023-12-20T19:34:58;1.93;;;1.40;;
18136;SDS011;9194;42.632;23.298;2023-12-20T19:40:00;2.30;;;2.10;;
18136;SDS011;9194;42.632;23.298;2023-12-20T19:45:01;2.03;;;1.93;;
18136;SDS011;9194;42.632;23.298;2023-12-20T19:50:05;1.23;;;1.23;;
18136;SDS011;9194;42.632;23.298;2023-12-20T19:55:07;1.63;;;1.47;;
18136;SDS011;9194;42.632;23.298;2023-12-20T20:00:08;1.50;;;1.50;;
18136;SDS011;9194;42.632;23.298;2023-12-20T20:05:13;1.13;;;1.13;;
18136;SDS011;9194;42.632;23.298;2023-12-20T20:10:15;3.43;;;3.00;;
18136;SDS011;9194;42.632;23.298;2023-12-20T20:15:16;12.93;;;4.07;;
18136;SDS011;9194;42.632;23.298;2023-12-20T20:20:17;8.37;;;4.10;;
18136;SDS011;9194;42.632;23.298;2023-12-20T20:25:18;3.23;;;2.03;;
18136;SDS011;9194;42.632;23.298;2023-12-20T20:30:19;1.70;;;1.70;;
18136;SDS011;9194;42.632;23.298;2023-12-20T20:35:21;2.10;;;2.00;;
18136;SDS011;9194;42.632;23.298;2023-12-20T20:40:22;4.03;;;1.87;;
18136;SDS011;9194;42.632;23.298;2023-12-20T20:45:23;2.03;;;1.90;;
18136;SDS011;9194;42.632;23.298;2023-12-20T20:50:24;0.93;;;0.93;;
18136;SDS011;9194;42.632;23.298;2023-12-20T20:55:25;1.33;;;1.33;;
18136;SDS011;9194;42.632;23.298;2023-12-20T21:00:27;1.73;;;1.67;;
18136;SDS011;9194;42.632;23.298;2023-12-20T21:05:29;3.30;;;3.03;;
18136;SDS011;9194;42.632;23.298;2023-12-20T21:10:30;0.90;;;0.90;;
18136;SDS011;9194;42.632;23.298;2023-12-20T21:15:32;1.87;;;1.77;;
18136;SDS011;9194;42.632;23.298;2023-12-20T21:20:33;1.07;;;1.07;;
18136;SDS011;9194;42.632;23.298;2023-12-20T21:25:34;2.43;;;2.23;;
18136;SDS011;9194;42.632;23.298;2023-12-20T21:30:36;3.03;;;2.33;;
18136;SDS011;9194;42.632;23.298;2023-12-20T21:35:38;3.43;;;2.43;;
18136;SDS011;9194;42.632;23.298;2023-12-20T21:40:39;2.77;;;2.57;;
18136;SDS011;9194;42.632;23.298;2023-12-20T21:45:40;2.60;;;2.50;;
18136;SDS011;9194;42.632;23.298;2023-12-20T21:50:43;2.10;;;1.97;;
18136;SDS011;9194;42.632;23.298;2023-12-20T21:55:44;2.07;;;1.97;;
18136;SDS011;9194;42.632;23.298;2023-12-20T22:00:45;3.07;;;2.87;;
18136;SDS011;9194;42.632;23.298;2023-12-20T22:05:47;1.33;;;1.33;;
18136;SDS011;9194;42.632;23.298;2023-12-20T22:10:49;2.47;;;2.27;;
18136;SDS011;9194;42.632;23.298;2023-12-20T22:15:50;2.50;;;2.23;;
18136;SDS011;9194;42.632;23.298;2023-12-20T22:20:52;2.73;;;1.70;;
18136;SDS011;9194;42.632;23.298;2023-12-20T22:25:53;2.77;;;2.07;;
18136;SDS011;9194;42.632;23.298;2023-12-20T22:30:55;1.10;;;1.10;;
18136;SDS011;9194;42.632;23.298;2023-12-20T22:35:56;2.97;;;2.87;;
18136;SDS011;9194;42.632;23.298;2023-12-20T22:40:57;29.50;;;3.40;;
18136;SDS011;9194;42.632;23.298;2023-12-20T22:45:58;12.13;;;2.60;;
18136;SDS011;9194;42.632;23.298;2023-12-20T22:51:00;8.00;;;3.17;;
18136;SDS011;9194;42.632;23.298;2023-12-20T22:56:01;2.17;;;2.07;;
18136;SDS011;9194;42.632;23.298;2023-12-20T23:01:02;2.40;;;2.20;;
18136;SDS011;9194;42.632;23.298;2023-12-20T23:06:04;5.43;;;3.43;;
18136;SDS011;9194;42.632;23.298;2023-12-20T23:11:05;5.10;;;2.60;;
18136;SDS011;9194;42.632;23.298;2023-12-20T23:16:07;3.10;;;2.80;;
18136;SDS011;9194;42.632;23.298;2023-12-20T23:21:09;3.40;;;3.20;;
18136;SDS011;9194;42.632;23.298;2023-12-20T23:26:10;5.80;;;3.13;;
18136;SDS011;9194;42.632;23.298;2023-12-20T23:31:20;3.70;;;2.33;;
18136;SDS011;9194;42.632;23.298;2023-12-20T23:36:23;4.37;;;3.93;;
18136;SDS011;9194;42.632;23.298;2023-12-20T23:41:24;2.37;;;2.27;;
18136;SDS011;9194;42.632;23.298;2023-12-20T23:46:26;3.07;;;2.87;;
18136;SDS011;9194;42.632;23.298;2023-12-20T23:51:27;3.37;;;3.07;;
18136;SDS011;9194;42.632;23.298;2023-12-20T23:56:28;2.90;;;2.70;;
